sensor_id;sensor_type;location;lat;lon;timestamp;pressure;altitude;pressure_sealevel;temperature;humidity
66385;BME280;53426;55.872;37.462;2022-09-27T00:01:16;98874.03;;;6.40;85.55
66385;BME280;53426;55.872;37.462;2022-09-27T00:03:45;98874.19;;;6.38;85.24
66385;BME280;53426;55.872;37.462;2022-09-27T00:06:18;98858.50;;;6.25;85.69
66385;BME280;53426;55.872;37.462;2022-09-27T00:08:45;98876.44;;;6.32;85.22
66385;BME280;53426;55.872;37.462;2022-09-27T00:13:50;98870.31;;;6.20;85.81
66385;BME280;53426;55.872;37.462;2022-09-27T00:16:16;98867.22;;;6.15;85.59
66385;BME280;53426;55.872;37.462;2022-09-27T00:18:42;98874.63;;;6.21;85.55
66385;BME280;53426;55.872;37.462;2022-09-27T00:21:10;98880.59;;;6.23;85.92
66385;BME280;53426;55.872;37.462;2022-09-27T00:23:37;98875.22;;;6.24;85.65
66385;BME280;53426;55.872;37.462;2022-09-27T00:26:03;98863.88;;;6.24;85.98
66385;BME280;53426;55.872;37.462;2022-09-27T00:28:29;98873.31;;;6.26;86.50
66385;BME280;53426;55.872;37.462;2022-09-27T00:30:56;98889.69;;;6.41;85.92
66385;BME280;53426;55.872;37.462;2022-09-27T00:33:29;98888.50;;;6.45;85.95
66385;BME280;53426;55.872;37.462;2022-09-27T00:36:04;98891.59;;;6.50;86.00
66385;BME280;53426;55.872;37.462;2022-09-27T00:38:30;98873.34;;;6.49;85.83
66385;BME280;53426;55.872;37.462;2022-09-27T00:40:55;98871.66;;;6.48;85.63
66385;BME280;53426;55.872;37.462;2022-09-27T00:43:22;98876.56;;;6.52;85.47
66385;BME280;53426;55.872;37.462;2022-09-27T00:45:52;98881.34;;;6.47;85.12
66385;BME280;53426;55.872;37.462;2022-09-27T00:48:22;98880.97;;;6.41;84.82
66385;BME280;53426;55.872;37.462;2022-09-27T00:50:54;98854.66;;;6.18;84.94
66385;BME280;53426;55.872;37.462;2022-09-27T00:53:30;98879.19;;;6.30;84.51
66385;BME280;53426;55.872;37.462;2022-09-27T00:56:05;98868.75;;;6.17;84.73
66385;BME280;53426;55.872;37.462;2022-09-27T00:58:36;98876.41;;;6.20;84.86
66385;BME280;53426;55.872;37.462;2022-09-27T01:01:06;98881.91;;;6.17;84.81
66385;BME280;53426;55.872;37.462;2022-09-27T01:03:45;98880.94;;;6.18;85.47
66385;BME280;53426;55.872;37.462;2022-09-27T01:06:16;98872.94;;;6.09;85.38
66385;BME280;53426;55.872;37.462;2022-09-27T01:08:44;98882.50;;;6.10;84.94
66385;BME280;53426;55.872;37.462;2022-09-27T01:11:43;98876.41;;;6.09;85.34
66385;BME280;53426;55.872;37.462;2022-09-27T01:26:10;98873.38;;;5.92;85.52
66385;BME280;53426;55.872;37.462;2022-09-27T01:35:01;98887.84;;;5.97;86.29
66385;BME280;53426;55.872;37.462;2022-09-27T01:40:37;98879.47;;;5.92;86.01
66385;BME280;53426;55.872;37.462;2022-09-27T01:43:49;98875.72;;;5.83;85.65
66385;BME280;53426;55.872;37.462;2022-09-27T01:46:26;98878.47;;;5.82;85.91
66385;BME280;53426;55.872;37.462;2022-09-27T01:49:17;98878.66;;;5.79;85.86
66385;BME280;53426;55.872;37.462;2022-09-27T01:51:47;98880.81;;;5.74;85.45
66385;BME280;53426;55.872;37.462;2022-09-27T01:54:18;98861.88;;;5.58;85.37
66385;BME280;53426;55.872;37.462;2022-09-27T01:57:17;98877.94;;;5.66;85.38
66385;BME280;53426;55.872;37.462;2022-09-27T01:59:49;98879.13;;;5.62;85.45
66385;BME280;53426;55.872;37.462;2022-09-27T02:05:29;98874.31;;;5.56;86.07
66385;BME280;53426;55.872;37.462;2022-09-27T02:08:05;98850.63;;;5.44;86.49
66385;BME280;53426;55.872;37.462;2022-09-27T02:10:38;98854.81;;;5.47;86.53
66385;BME280;53426;55.872;37.462;2022-09-27T02:13:20;98867.88;;;5.60;86.70
66385;BME280;53426;55.872;37.462;2022-09-27T02:19:19;98877.59;;;5.70;86.94
66385;BME280;53426;55.872;37.462;2022-09-27T02:21:55;98872.22;;;5.72;86.75
66385;BME280;53426;55.872;37.462;2022-09-27T02:24:53;98829.75;;;5.43;86.41
66385;BME280;53426;55.872;37.462;2022-09-27T02:27:23;98880.81;;;5.74;86.66
66385;BME280;53426;55.872;37.462;2022-09-27T02:32:32;98879.00;;;5.74;86.53
66385;BME280;53426;55.872;37.462;2022-09-27T02:35:03;98873.19;;;5.82;86.45
66385;BME280;53426;55.872;37.462;2022-09-27T02:37:31;98879.06;;;5.85;86.49
66385;BME280;53426;55.872;37.462;2022-09-27T02:39:57;98873.78;;;5.85;85.63
66385;BME280;53426;55.872;37.462;2022-09-27T02:42:24;98869.50;;;5.84;86.31
66385;BME280;53426;55.872;37.462;2022-09-27T02:44:50;98879.72;;;5.89;85.81
66385;BME280;53426;55.872;37.462;2022-09-27T02:48:08;98875.91;;;5.93;85.61
66385;BME280;53426;55.872;37.462;2022-09-27T03:00:01;98889.28;;;6.01;85.60
66385;BME280;53426;55.872;37.462;2022-09-27T03:02:58;98890.00;;;6.03;85.34
66385;BME280;53426;55.872;37.462;2022-09-27T03:05:33;98889.06;;;6.04;85.75
66385;BME280;53426;55.872;37.462;2022-09-27T03:08:06;98891.44;;;6.07;85.45
66385;BME280;53426;55.872;37.462;2022-09-27T03:10:34;98890.94;;;6.02;85.13
66385;BME280;53426;55.872;37.462;2022-09-27T03:13:03;98873.50;;;6.01;85.23
66385;BME280;53426;55.872;37.462;2022-09-27T03:15:30;98886.81;;;6.11;84.75
66385;BME280;53426;55.872;37.462;2022-09-27T03:17:59;98898.41;;;6.19;84.58
66385;BME280;53426;55.872;37.462;2022-09-27T03:21:00;98899.25;;;6.20;84.46
66385;BME280;53426;55.872;37.462;2022-09-27T03:23:26;98901.25;;;6.27;84.41
66385;BME280;53426;55.872;37.462;2022-09-27T03:25:55;98882.25;;;6.13;84.74
66385;BME280;53426;55.872;37.462;2022-09-27T03:28:24;98901.63;;;6.34;84.10
66385;BME280;53426;55.872;37.462;2022-09-27T03:30:50;98850.97;;;6.10;84.25
66385;BME280;53426;55.872;37.462;2022-09-27T03:33:42;98904.28;;;6.45;84.25
66385;BME280;53426;55.872;37.462;2022-09-27T03:36:10;98900.69;;;6.46;83.92
66385;BME280;53426;55.872;37.462;2022-09-27T03:38:36;98907.03;;;6.55;83.54
66385;BME280;53426;55.872;37.462;2022-09-27T03:41:03;98896.50;;;6.66;84.18
66385;BME280;53426;55.872;37.462;2022-09-27T03:43:29;98896.66;;;6.64;83.80
66385;BME280;53426;55.872;37.462;2022-09-27T03:46:01;98914.91;;;6.77;83.84
66385;BME280;53426;55.872;37.462;2022-09-27T03:48:27;98911.81;;;6.83;83.62
66385;BME280;53426;55.872;37.462;2022-09-27T03:50:55;98912.19;;;6.90;83.01
66385;BME280;53426;55.872;37.462;2022-09-27T03:53:33;98908.72;;;6.89;82.77
66385;BME280;53426;55.872;37.462;2022-09-27T03:56:00;98848.84;;;6.48;82.95
66385;BME280;53426;55.872;37.462;2022-09-27T03:58:26;98902.84;;;6.86;83.39
66385;BME280;53426;55.872;37.462;2022-09-27T04:00:54;98909.78;;;6.98;83.25
66385;BME280;53426;55.872;37.462;2022-09-27T04:03:20;98921.13;;;7.09;83.55
66385;BME280;53426;55.872;37.462;2022-09-27T04:06:04;98902.56;;;7.11;82.89
66385;BME280;53426;55.872;37.462;2022-09-27T04:08:43;98924.91;;;7.28;82.44
66385;BME280;53426;55.872;37.462;2022-09-27T04:11:09;98922.31;;;7.17;82.60
66385;BME280;53426;55.872;37.462;2022-09-27T04:13:37;98922.78;;;7.10;82.57
66385;BME280;53426;55.872;37.462;2022-09-27T04:16:03;98899.97;;;7.00;82.58
66385;BME280;53426;55.872;37.462;2022-09-27T04:19:05;98914.41;;;7.17;82.80
66385;BME280;53426;55.872;37.462;2022-09-27T04:21:32;98915.97;;;7.19;82.49
66385;BME280;53426;55.872;37.462;2022-09-27T04:23:59;98910.53;;;7.32;82.67
66385;BME280;53426;55.872;37.462;2022-09-27T04:26:25;98916.53;;;7.34;82.52
66385;BME280;53426;55.872;37.462;2022-09-27T04:28:58;98901.69;;;7.33;82.72
66385;BME280;53426;55.872;37.462;2022-09-27T04:31:24;98918.88;;;7.48;81.99
66385;BME280;53426;55.872;37.462;2022-09-27T04:34:04;98885.28;;;7.40;81.95
66385;BME280;53426;55.872;37.462;2022-09-27T04:36:33;98904.03;;;7.58;81.54
66385;BME280;53426;55.872;37.462;2022-09-27T04:39:07;98918.31;;;7.76;81.35
66385;BME280;53426;55.872;37.462;2022-09-27T04:41:37;98921.47;;;7.91;80.83
66385;BME280;53426;55.872;37.462;2022-09-27T04:44:04;98916.47;;;8.09;80.27
66385;BME280;53426;55.872;37.462;2022-09-27T04:46:31;98922.63;;;8.19;79.73
66385;BME280;53426;55.872;37.462;2022-09-27T04:48:58;98909.09;;;8.23;79.79
66385;BME280;53426;55.872;37.462;2022-09-27T04:51:24;98920.59;;;8.43;79.33
66385;BME280;53426;55.872;37.462;2022-09-27T04:53:52;98919.88;;;8.41;79.10
66385;BME280;53426;55.872;37.462;2022-09-27T04:56:19;98910.56;;;8.16;78.39
66385;BME280;53426;55.872;37.462;2022-09-27T04:58:45;98926.72;;;8.23;79.01
66385;BME280;53426;55.872;37.462;2022-09-27T05:01:12;98921.00;;;8.18;79.29
66385;BME280;53426;55.872;37.462;2022-09-27T05:03:39;98913.25;;;8.26;79.31
66385;BME280;53426;55.872;37.462;2022-09-27T05:06:10;98925.84;;;8.33;79.32
66385;BME280;53426;55.872;37.462;2022-09-27T05:08:36;98923.50;;;8.40;79.11
66385;BME280;53426;55.872;37.462;2022-09-27T05:11:22;98914.69;;;8.30;79.39
66385;BME280;53426;55.872;37.462;2022-09-27T05:14:07;98917.25;;;8.41;78.93
66385;BME280;53426;55.872;37.462;2022-09-27T05:16:42;98916.06;;;8.45;78.80
66385;BME280;53426;55.872;37.462;2022-09-27T05:19:29;98919.06;;;8.40;78.97
66385;BME280;53426;55.872;37.462;2022-09-27T05:22:20;98908.06;;;8.35;78.32
66385;BME280;53426;55.872;37.462;2022-09-27T05:24:46;98916.63;;;8.49;78.79
66385;BME280;53426;55.872;37.462;2022-09-27T05:27:14;98925.44;;;8.68;78.63
66385;BME280;53426;55.872;37.462;2022-09-27T05:29:46;98922.06;;;8.57;78.48
66385;BME280;53426;55.872;37.462;2022-09-27T05:32:25;98920.66;;;8.53;78.88
66385;BME280;53426;55.872;37.462;2022-09-27T05:35:17;98915.84;;;8.67;78.28
66385;BME280;53426;55.872;37.462;2022-09-27T05:37:52;98918.06;;;8.93;78.16
66385;BME280;53426;55.872;37.462;2022-09-27T05:40:20;98918.47;;;8.88;77.71
66385;BME280;53426;55.872;37.462;2022-09-27T05:42:51;98931.91;;;8.85;77.34
66385;BME280;53426;55.872;37.462;2022-09-27T05:45:18;98926.31;;;8.78;77.88
66385;BME280;53426;55.872;37.462;2022-09-27T05:47:54;98924.03;;;8.95;77.79
66385;BME280;53426;55.872;37.462;2022-09-27T05:50:20;98924.50;;;9.00;77.76
66385;BME280;53426;55.872;37.462;2022-09-27T05:52:47;98927.88;;;9.21;77.35
66385;BME280;53426;55.872;37.462;2022-09-27T05:55:15;98915.91;;;9.17;76.95
66385;BME280;53426;55.872;37.462;2022-09-27T05:57:41;98924.13;;;9.33;76.73
66385;BME280;53426;55.872;37.462;2022-09-27T06:00:08;98920.97;;;9.39;76.27
66385;BME280;53426;55.872;37.462;2022-09-27T06:02:37;98924.00;;;9.35;76.41
66385;BME280;53426;55.872;37.462;2022-09-27T06:05:22;98919.56;;;9.35;76.06
66385;BME280;53426;55.872;37.462;2022-09-27T06:08:09;98917.34;;;9.40;75.88
66385;BME280;53426;55.872;37.462;2022-09-27T06:10:41;98919.44;;;9.56;76.39
66385;BME280;53426;55.872;37.462;2022-09-27T06:13:11;98922.56;;;9.71;75.15
66385;BME280;53426;55.872;37.462;2022-09-27T06:15:42;98911.81;;;9.72;75.13
66385;BME280;53426;55.872;37.462;2022-09-27T06:18:14;98910.84;;;9.83;74.47
66385;BME280;53426;55.872;37.462;2022-09-27T06:20:45;98920.19;;;9.87;73.90
66385;BME280;53426;55.872;37.462;2022-09-27T06:23:16;98906.81;;;9.98;74.44
66385;BME280;53426;55.872;37.462;2022-09-27T06:25:44;98901.53;;;9.98;74.76
66385;BME280;53426;55.872;37.462;2022-09-27T06:28:34;98895.81;;;10.12;73.41
66385;BME280;53426;55.872;37.462;2022-09-27T06:31:03;98906.72;;;10.56;72.53
66385;BME280;53426;55.872;37.462;2022-09-27T06:33:38;98901.78;;;10.33;72.56
66385;BME280;53426;55.872;37.462;2022-09-27T06:36:05;98907.59;;;10.46;72.72
66385;BME280;53426;55.872;37.462;2022-09-27T06:38:33;98902.53;;;10.63;72.06
66385;BME280;53426;55.872;37.462;2022-09-27T06:41:20;98893.63;;;10.54;71.53
66385;BME280;53426;55.872;37.462;2022-09-27T06:44:12;98902.94;;;10.68;71.93
66385;BME280;53426;55.872;37.462;2022-09-27T06:46:57;98897.50;;;10.97;71.72
66385;BME280;53426;55.872;37.462;2022-09-27T06:49:41;98893.13;;;10.78;71.92
66385;BME280;53426;55.872;37.462;2022-09-27T06:52:06;98899.94;;;10.90;71.42
66385;BME280;53426;55.872;37.462;2022-09-27T06:54:32;98882.84;;;11.02;70.76
66385;BME280;53426;55.872;37.462;2022-09-27T06:56:58;98878.69;;;11.00;69.54
66385;BME280;53426;55.872;37.462;2022-09-27T06:59:24;98897.56;;;11.14;69.52
66385;BME280;53426;55.872;37.462;2022-09-27T07:02:28;98865.28;;;11.01;69.78
66385;BME280;53426;55.872;37.462;2022-09-27T07:05:07;98860.94;;;11.63;68.98
66385;BME280;53426;55.872;37.462;2022-09-27T07:07:45;98873.00;;;12.10;67.22
66385;BME280;53426;55.872;37.462;2022-09-27T07:10:13;98856.84;;;12.89;65.08
66385;BME280;53426;55.872;37.462;2022-09-27T07:12:39;98867.31;;;13.25;62.37
66385;BME280;53426;55.872;37.462;2022-09-27T07:15:26;98895.84;;;14.46;60.57
66385;BME280;53426;55.872;37.462;2022-09-27T07:17:57;98885.41;;;14.91;58.33
66385;BME280;53426;55.872;37.462;2022-09-27T07:20:25;98891.75;;;15.29;57.09
66385;BME280;53426;55.872;37.462;2022-09-27T07:22:51;98909.78;;;16.26;54.34
66385;BME280;53426;55.872;37.462;2022-09-27T07:25:18;98904.94;;;16.07;53.63
66385;BME280;53426;55.872;37.462;2022-09-27T07:27:43;98915.97;;;15.50;55.36
66385;BME280;53426;55.872;37.462;2022-09-27T07:30:10;98913.50;;;16.25;52.77
66385;BME280;53426;55.872;37.462;2022-09-27T07:32:37;98909.94;;;16.85;51.11
66385;BME280;53426;55.872;37.462;2022-09-27T07:35:07;98915.00;;;15.52;53.45
66385;BME280;53426;55.872;37.462;2022-09-27T07:37:34;98913.94;;;14.75;55.98
66385;BME280;53426;55.872;37.462;2022-09-27T07:40:01;98880.56;;;14.23;56.93
66385;BME280;53426;55.872;37.462;2022-09-27T07:42:28;98907.50;;;14.53;55.74
66385;BME280;53426;55.872;37.462;2022-09-27T07:44:55;98909.13;;;15.87;53.77
66385;BME280;53426;55.872;37.462;2022-09-27T07:47:40;98900.47;;;18.33;48.46
66385;BME280;53426;55.872;37.462;2022-09-27T07:50:20;98906.53;;;19.79;45.29
66385;BME280;53426;55.872;37.462;2022-09-27T07:52:51;98889.84;;;20.63;41.98
66385;BME280;53426;55.872;37.462;2022-09-27T07:55:32;98901.56;;;21.01;42.21
66385;BME280;53426;55.872;37.462;2022-09-27T07:58:11;98902.81;;;21.63;38.38
66385;BME280;53426;55.872;37.462;2022-09-27T08:00:39;98881.75;;;21.47;38.79
66385;BME280;53426;55.872;37.462;2022-09-27T08:03:10;98882.59;;;21.85;37.23
66385;BME280;53426;55.872;37.462;2022-09-27T08:05:44;98884.84;;;22.69;37.25
66385;BME280;53426;55.872;37.462;2022-09-27T08:08:14;98880.56;;;23.23;36.13
66385;BME280;53426;55.872;37.462;2022-09-27T08:10:41;98882.34;;;22.74;36.86
66385;BME280;53426;55.872;37.462;2022-09-27T08:13:09;98891.38;;;22.05;36.78
66385;BME280;53426;55.872;37.462;2022-09-27T08:15:36;98877.78;;;20.98;39.25
66385;BME280;53426;55.872;37.462;2022-09-27T08:18:05;98885.28;;;21.85;38.56
66385;BME280;53426;55.872;37.462;2022-09-27T08:21:03;98867.94;;;22.56;37.60
66385;BME280;53426;55.872;37.462;2022-09-27T08:23:42;98895.22;;;24.23;33.76
66385;BME280;53426;55.872;37.462;2022-09-27T08:26:21;98879.38;;;24.27;34.05
66385;BME280;53426;55.872;37.462;2022-09-27T08:28:53;98872.53;;;23.83;33.23
66385;BME280;53426;55.872;37.462;2022-09-27T08:31:23;98882.44;;;22.11;35.63
66385;BME280;53426;55.872;37.462;2022-09-27T08:33:52;98881.63;;;19.10;41.17
66385;BME280;53426;55.872;37.462;2022-09-27T08:36:21;98875.03;;;18.44;41.97
66385;BME280;53426;55.872;37.462;2022-09-27T08:38:48;98859.25;;;20.44;38.31
66385;BME280;53426;55.872;37.462;2022-09-27T08:41:37;98875.56;;;21.40;37.97
66385;BME280;53426;55.872;37.462;2022-09-27T08:47:15;98844.41;;;23.06;34.76
66385;BME280;53426;55.872;37.462;2022-09-27T08:52:40;98882.94;;;24.09;31.96
66385;BME280;53426;55.872;37.462;2022-09-27T08:58:26;98869.72;;;24.77;30.68
66385;BME280;53426;55.872;37.462;2022-09-27T09:00:59;98878.25;;;25.56;28.74
66385;BME280;53426;55.872;37.462;2022-09-27T09:03:33;98868.56;;;25.60;28.93
66385;BME280;53426;55.872;37.462;2022-09-27T09:06:06;98876.09;;;24.94;28.34
66385;BME280;53426;55.872;37.462;2022-09-27T09:20:46;98862.22;;;24.33;29.44
66385;BME280;53426;55.872;37.462;2022-09-27T09:29:01;98851.50;;;25.76;28.17
66385;BME280;53426;55.872;37.462;2022-09-27T09:31:46;98852.72;;;23.22;31.52
66385;BME280;53426;55.872;37.462;2022-09-27T09:34:19;98842.03;;;20.78;34.72
66385;BME280;53426;55.872;37.462;2022-09-27T09:37:03;98854.06;;;20.36;36.64
66385;BME280;53426;55.872;37.462;2022-09-27T09:39:51;98853.44;;;20.60;36.80
66385;BME280;53426;55.872;37.462;2022-09-27T09:45:12;98860.22;;;22.41;34.12
66385;BME280;53426;55.872;37.462;2022-09-27T09:50:30;98848.84;;;24.08;30.58
66385;BME280;53426;55.872;37.462;2022-09-27T09:53:19;98853.75;;;24.64;30.73
66385;BME280;53426;55.872;37.462;2022-09-27T09:55:51;98834.16;;;22.96;31.86
66385;BME280;53426;55.872;37.462;2022-09-27T10:01:26;98846.72;;;20.96;35.79
66385;BME280;53426;55.872;37.462;2022-09-27T10:03:56;98848.47;;;19.85;36.94
66385;BME280;53426;55.872;37.462;2022-09-27T10:06:23;98851.78;;;20.00;36.84
66385;BME280;53426;55.872;37.462;2022-09-27T10:08:50;98830.13;;;19.34;37.85
66385;BME280;53426;55.872;37.462;2022-09-27T10:11:44;98849.38;;;18.34;40.42
66385;BME280;53426;55.872;37.462;2022-09-27T10:14:19;98845.66;;;18.57;40.26
66385;BME280;53426;55.872;37.462;2022-09-27T10:16:57;98840.19;;;19.93;38.43
66385;BME280;53426;55.872;37.462;2022-09-27T10:19:28;98843.94;;;19.25;38.74
66385;BME280;53426;55.872;37.462;2022-09-27T10:24:59;98847.94;;;17.47;42.54
66385;BME280;53426;55.872;37.462;2022-09-27T10:27:47;98842.19;;;18.63;40.41
66385;BME280;53426;55.872;37.462;2022-09-27T10:30:28;98846.59;;;19.18;39.15
66385;BME280;53426;55.872;37.462;2022-09-27T10:33:02;98835.34;;;18.95;39.28
66385;BME280;53426;55.872;37.462;2022-09-27T10:35:46;98816.63;;;20.15;36.64
66385;BME280;53426;55.872;37.462;2022-09-27T10:38:29;98847.41;;;19.73;36.97
66385;BME280;53426;55.872;37.462;2022-09-27T10:41:22;98855.50;;;20.58;35.91
66385;BME280;53426;55.872;37.462;2022-09-27T10:43:49;98830.69;;;20.50;35.11
66385;BME280;53426;55.872;37.462;2022-09-27T10:49:20;98824.09;;;21.10;34.96
66385;BME280;53426;55.872;37.462;2022-09-27T10:51:52;98822.16;;;21.37;34.44
66385;BME280;53426;55.872;37.462;2022-09-27T10:54:25;98808.75;;;20.59;35.84
66385;BME280;53426;55.872;37.462;2022-09-27T10:57:04;98825.94;;;19.99;37.38
66385;BME280;53426;55.872;37.462;2022-09-27T10:59:40;98817.75;;;19.40;38.34
66385;BME280;53426;55.872;37.462;2022-09-27T11:02:22;98826.34;;;20.02;36.60
66385;BME280;53426;55.872;37.462;2022-09-27T11:07:36;98823.97;;;19.40;37.64
66385;BME280;53426;55.872;37.462;2022-09-27T11:13:11;98823.78;;;16.75;42.74
66385;BME280;53426;55.872;37.462;2022-09-27T11:16:03;98817.38;;;16.17;44.49
66385;BME280;53426;55.872;37.462;2022-09-27T11:21:37;98820.94;;;15.72;44.83
66385;BME280;53426;55.872;37.462;2022-09-27T11:24:50;98796.72;;;15.28;45.33
66385;BME280;53426;55.872;37.462;2022-09-27T11:30:23;98808.81;;;14.38;46.78
66385;BME280;53426;55.872;37.462;2022-09-27T11:39:02;98804.13;;;14.32;47.62
66385;BME280;53426;55.872;37.462;2022-09-27T11:48:13;98787.78;;;14.35;47.15
66385;BME280;53426;55.872;37.462;2022-09-27T11:56:33;98765.66;;;14.35;47.53
66385;BME280;53426;55.872;37.462;2022-09-27T12:04:32;98793.13;;;14.35;47.68
66385;BME280;53426;55.872;37.462;2022-09-27T12:09:45;98773.25;;;13.42;49.18
66385;BME280;53426;55.872;37.462;2022-09-27T12:12:18;98801.19;;;13.54;49.73
66385;BME280;53426;55.872;37.462;2022-09-27T12:14:59;98797.56;;;13.55;49.82
66385;BME280;53426;55.872;37.462;2022-09-27T12:17:29;98763.28;;;13.28;50.12
66385;BME280;53426;55.872;37.462;2022-09-27T12:20:01;98805.19;;;13.42;49.72
66385;BME280;53426;55.872;37.462;2022-09-27T12:22:51;98800.69;;;13.34;50.06
66385;BME280;53426;55.872;37.462;2022-09-27T12:25:25;98767.88;;;13.02;50.01
66385;BME280;53426;55.872;37.462;2022-09-27T12:31:10;98787.75;;;12.81;51.32
66385;BME280;53426;55.872;37.462;2022-09-27T12:33:53;98782.88;;;12.69;51.58
66385;BME280;53426;55.872;37.462;2022-09-27T12:36:24;98760.41;;;12.55;51.67
66385;BME280;53426;55.872;37.462;2022-09-27T12:39:04;98770.69;;;12.50;51.95
66385;BME280;53426;55.872;37.462;2022-09-27T12:41:37;98777.94;;;12.40;52.59
66385;BME280;53426;55.872;37.462;2022-09-27T12:44:19;98774.78;;;12.36;52.76
66385;BME280;53426;55.872;37.462;2022-09-27T12:47:42;98763.66;;;12.33;50.70
66385;BME280;53426;55.872;37.462;2022-09-27T12:53:02;98746.28;;;12.12;52.38
66385;BME280;53426;55.872;37.462;2022-09-27T12:59:13;98767.19;;;12.49;52.03
66385;BME280;53426;55.872;37.462;2022-09-27T13:08:01;98753.47;;;12.54;52.02
66385;BME280;53426;55.872;37.462;2022-09-27T13:10:46;98740.00;;;12.47;52.22
66385;BME280;53426;55.872;37.462;2022-09-27T13:13:35;98755.59;;;12.50;50.98
66385;BME280;53426;55.872;37.462;2022-09-27T13:16:03;98757.09;;;12.53;51.15
66385;BME280;53426;55.872;37.462;2022-09-27T13:21:03;98751.78;;;12.53;51.26
66385;BME280;53426;55.872;37.462;2022-09-27T13:26:42;98749.44;;;12.42;51.51
66385;BME280;53426;55.872;37.462;2022-09-27T13:29:24;98739.28;;;12.37;52.24
66385;BME280;53426;55.872;37.462;2022-09-27T13:34:52;98737.28;;;12.31;52.07
66385;BME280;53426;55.872;37.462;2022-09-27T13:40:23;98740.28;;;12.36;51.40
66385;BME280;53426;55.872;37.462;2022-09-27T13:43:38;98732.31;;;12.36;50.98
66385;BME280;53426;55.872;37.462;2022-09-27T13:46:16;98730.28;;;12.30;50.73
66385;BME280;53426;55.872;37.462;2022-09-27T13:48:53;98725.75;;;12.14;50.76
66385;BME280;53426;55.872;37.462;2022-09-27T13:51:33;98744.03;;;12.26;50.72
66385;BME280;53426;55.872;37.462;2022-09-27T13:54:02;98715.97;;;12.15;51.00
66385;BME280;53426;55.872;37.462;2022-09-27T13:59:12;98712.84;;;12.28;51.47
66385;BME280;53426;55.872;37.462;2022-09-27T14:02:44;98733.78;;;12.31;52.15
66385;BME280;53426;55.872;37.462;2022-09-27T14:05:20;98695.84;;;12.04;52.36
66385;BME280;53426;55.872;37.462;2022-09-27T14:07:48;98726.41;;;12.16;52.19
66385;BME280;53426;55.872;37.462;2022-09-27T14:10:18;98719.97;;;12.19;52.52
66385;BME280;53426;55.872;37.462;2022-09-27T14:12:51;98724.06;;;12.13;52.50
66385;BME280;53426;55.872;37.462;2022-09-27T14:15:55;98737.34;;;12.13;53.03
66385;BME280;53426;55.872;37.462;2022-09-27T14:18:23;98677.16;;;11.62;52.54
66385;BME280;53426;55.872;37.462;2022-09-27T14:20:51;98729.50;;;12.04;53.03
66385;BME280;53426;55.872;37.462;2022-09-27T14:23:43;98725.13;;;11.95;52.44
66385;BME280;53426;55.872;37.462;2022-09-27T14:26:26;98720.50;;;11.97;52.47
66385;BME280;53426;55.872;37.462;2022-09-27T14:28:52;98716.38;;;11.94;53.29
66385;BME280;53426;55.872;37.462;2022-09-27T14:31:31;98702.53;;;11.83;53.41
66385;BME280;53426;55.872;37.462;2022-09-27T14:34:07;98667.13;;;11.48;53.21
66385;BME280;53426;55.872;37.462;2022-09-27T14:36:39;98677.59;;;11.50;53.53
66385;BME280;53426;55.872;37.462;2022-09-27T14:39:30;98690.38;;;11.54;53.79
66385;BME280;53426;55.872;37.462;2022-09-27T14:41:59;98714.50;;;11.69;53.76
66385;BME280;53426;55.872;37.462;2022-09-27T14:44:26;98725.34;;;11.76;54.26
66385;BME280;53426;55.872;37.462;2022-09-27T14:47:10;98722.69;;;11.76;54.33
66385;BME280;53426;55.872;37.462;2022-09-27T14:49:50;98722.16;;;11.72;54.29
66385;BME280;53426;55.872;37.462;2022-09-27T14:52:23;98727.91;;;11.67;54.48
66385;BME280;53426;55.872;37.462;2022-09-27T14:55:00;98700.16;;;11.54;54.03
66385;BME280;53426;55.872;37.462;2022-09-27T14:57:30;98718.44;;;11.65;55.05
66385;BME280;53426;55.872;37.462;2022-09-27T15:00:14;98713.44;;;11.62;54.75
66385;BME280;53426;55.872;37.462;2022-09-27T15:02:42;98692.53;;;11.51;54.51
66385;BME280;53426;55.872;37.462;2022-09-27T15:05:16;98708.84;;;11.64;54.29
66385;BME280;53426;55.872;37.462;2022-09-27T15:07:46;98707.00;;;11.64;54.97
66385;BME280;53426;55.872;37.462;2022-09-27T15:10:20;98696.03;;;11.59;55.03
66385;BME280;53426;55.872;37.462;2022-09-27T15:12:49;98700.50;;;11.59;55.01
66385;BME280;53426;55.872;37.462;2022-09-27T15:15:25;98702.47;;;11.57;55.72
66385;BME280;53426;55.872;37.462;2022-09-27T15:17:53;98724.00;;;11.54;56.17
66385;BME280;53426;55.872;37.462;2022-09-27T15:20:25;98659.84;;;11.24;56.90
66385;BME280;53426;55.872;37.462;2022-09-27T15:23:05;98609.81;;;10.96;56.03
66385;BME280;53426;55.872;37.462;2022-09-27T15:26:22;98548.88;;;10.52;57.04
66385;BME280;53426;55.872;37.462;2022-09-27T15:28:51;98633.22;;;11.08;57.14
66385;BME280;53426;55.872;37.462;2022-09-27T15:31:27;98622.50;;;10.92;56.99
66385;BME280;53426;55.872;37.462;2022-09-27T15:33:58;98699.09;;;11.47;57.61
66385;BME280;53426;55.872;37.462;2022-09-27T15:39:27;98672.72;;;11.19;58.64
66385;BME280;53426;55.872;37.462;2022-09-27T15:42:11;98694.72;;;11.38;58.37
66385;BME280;53426;55.872;37.462;2022-09-27T15:52:54;98654.84;;;11.21;59.29
66385;BME280;53426;55.872;37.462;2022-09-27T15:55:24;98667.97;;;11.23;59.58
66385;BME280;53426;55.872;37.462;2022-09-27T15:57:59;98662.13;;;11.19;59.76
66385;BME280;53426;55.872;37.462;2022-09-27T16:00:36;98682.47;;;11.19;59.64
66385;BME280;53426;55.872;37.462;2022-09-27T16:03:04;98631.38;;;10.83;60.12
66385;BME280;53426;55.872;37.462;2022-09-27T16:05:30;98670.31;;;11.08;60.61
66385;BME280;53426;55.872;37.462;2022-09-27T16:07:57;98664.72;;;11.11;60.88
66385;BME280;53426;55.872;37.462;2022-09-27T16:10:35;98661.00;;;11.04;60.96
66385;BME280;53426;55.872;37.462;2022-09-27T16:13:03;98666.44;;;11.03;61.30
66385;BME280;53426;55.872;37.462;2022-09-27T16:15:36;98651.13;;;10.88;61.45
66385;BME280;53426;55.872;37.462;2022-09-27T16:18:30;98663.19;;;10.91;62.00